Charleston Heights, South Carolina
Current Conditions -  °F | °C
As of 10:56 AM on Friday 31 Oct 2014 (Local Time) from KCHS Reporting Station
Scattered Clouds Scattered Clouds  
Wind Chill: 67°   Ceiling: Unl
Heat Index: 67°   Visibility: 10mi
Dew Point: 45°   Wind: 13mph
Humidity: 45%   Direction: 40°NE
Pressure: 29.9"   Gusts: NA
Location:  32.8713°N, 80.0388°W
Report Text: KCHS 311456Z 04011KT 10SM FEW050 SCT100 SCT250 19/07 A2990 RMK AO2 SLP124 T01940072 51001
Loading
Personal Weather Stations






























Interactive Weather Map New forecast layout! Learn more

10-Day Weather Forecast

Advertisements
Track Severe Weather on mobile